Beaver Creek, Ohio
Current Conditions -  °F | °C
As of 4:58 PM on Saturday 25 Oct 2014 (Local Time) from KFFO Reporting Station
Clear Clear  
Wind Chill: 74°   Ceiling: Unl
Heat Index: 74°   Visibility: 10mi
Dew Point: 51°   Wind: 10mph
Humidity: 44%   Direction: 260°W
Pressure: 29.87"   Gusts: NA
Location:  39.7649°N, 84.0863°W
Report Text: KFFO 252058Z AUTO 26009KT 10SM CLR 24/11 A2987 RMK AO2 SLP116 T02360108 56008
Loading
Personal Weather Stations






























Interactive Weather Map
Tropical Storm Tracking
New forecast layout! Learn more

10-Day Weather Forecast

Advertisements
Track Severe Weather on mobile